sensor_id;sensor_type;location;lat;lon;timestamp;P1;durP1;ratioP1;P2;durP2;ratioP2
14320;SDS011;7244;47.364;8.464;2022-08-19T00:13:03;12;;;10;;
14320;SDS011;7244;47.364;8.464;2022-08-19T00:28:03;9;;;8;;
14320;SDS011;7244;47.364;8.464;2022-08-19T00:44:04;15;;;12;;
14320;SDS011;7244;47.364;8.464;2022-08-19T01:00:04;10;;;8;;
14320;SDS011;7244;47.364;8.464;2022-08-19T01:16:04;13;;;9;;
14320;SDS011;7244;47.364;8.464;2022-08-19T01:31:02;13;;;11;;
14320;SDS011;7244;47.364;8.464;2022-08-19T01:47:03;17;;;12;;
14320;SDS011;7244;47.364;8.464;2022-08-19T02:03:02;17;;;12;;
14320;SDS011;7244;47.364;8.464;2022-08-19T02:04:02;17;;;12;;
14320;SDS011;7244;47.364;8.464;2022-08-19T02:05:03;17;;;12;;
14320;SDS011;7244;47.364;8.464;2022-08-19T02:06:03;17;;;12;;
14320;SDS011;7244;47.364;8.464;2022-08-19T02:07:02;17;;;12;;
14320;SDS011;7244;47.364;8.464;2022-08-19T02:08:02;17;;;12;;
14320;SDS011;7244;47.364;8.464;2022-08-19T02:09:02;17;;;12;;
14320;SDS011;7244;47.364;8.464;2022-08-19T02:10:02;17;;;12;;
14320;SDS011;7244;47.364;8.464;2022-08-19T02:11:02;17;;;12;;
14320;SDS011;7244;47.364;8.464;2022-08-19T02:12:02;17;;;12;;
14320;SDS011;7244;47.364;8.464;2022-08-19T02:13:02;17;;;12;;
14320;SDS011;7244;47.364;8.464;2022-08-19T02:14:03;17;;;12;;
14320;SDS011;7244;47.364;8.464;2022-08-19T02:15:03;17;;;12;;
14320;SDS011;7244;47.364;8.464;2022-08-19T02:16:02;17;;;12;;
14320;SDS011;7244;47.364;8.464;2022-08-19T02:17:02;21;;;15;;
14320;SDS011;7244;47.364;8.464;2022-08-19T02:34:02;28;;;19;;
14320;SDS011;7244;47.364;8.464;2022-08-19T02:50:02;27;;;18;;
14320;SDS011;7244;47.364;8.464;2022-08-19T03:06:03;16;;;13;;
14320;SDS011;7244;47.364;8.464;2022-08-19T03:21:02;20;;;15;;
14320;SDS011;7244;47.364;8.464;2022-08-19T03:37:03;21;;;16;;
14320;SDS011;7244;47.364;8.464;2022-08-19T03:53:03;27;;;19;;
14320;SDS011;7244;47.364;8.464;2022-08-19T04:08:03;33;;;22;;
14320;SDS011;7244;47.364;8.464;2022-08-19T04:24:03;34;;;21;;
14320;SDS011;7244;47.364;8.464;2022-08-19T04:40:04;36;;;23;;
14320;SDS011;7244;47.364;8.464;2022-08-19T04:56:04;42;;;26;;
14320;SDS011;7244;47.364;8.464;2022-08-19T05:11:06;28;;;19;;
14320;SDS011;7244;47.364;8.464;2022-08-19T05:27:02;26;;;18;;
14320;SDS011;7244;47.364;8.464;2022-08-19T05:43:02;28;;;19;;
14320;SDS011;7244;47.364;8.464;2022-08-19T05:59:03;26;;;18;;
14320;SDS011;7244;47.364;8.464;2022-08-19T06:14:03;29;;;19;;
14320;SDS011;7244;47.364;8.464;2022-08-19T06:30:03;27;;;18;;
14320;SDS011;7244;47.364;8.464;2022-08-19T06:46:02;25;;;18;;
14320;SDS011;7244;47.364;8.464;2022-08-19T07:01:02;23;;;18;;
14320;SDS011;7244;47.364;8.464;2022-08-19T07:17:03;19;;;15;;
14320;SDS011;7244;47.364;8.464;2022-08-19T07:33:02;24;;;19;;
14320;SDS011;7244;47.364;8.464;2022-08-19T07:49:03;24;;;19;;
14320;SDS011;7244;47.364;8.464;2022-08-19T08:04:02;25;;;19;;
14320;SDS011;7244;47.364;8.464;2022-08-19T08:20:03;21;;;17;;
14320;SDS011;7244;47.364;8.464;2022-08-19T08:36:03;26;;;18;;
14320;SDS011;7244;47.364;8.464;2022-08-19T08:52:05;29;;;20;;
14320;SDS011;7244;47.364;8.464;2022-08-19T09:07:09;29;;;20;;
14320;SDS011;7244;47.364;8.464;2022-08-19T09:23:02;30;;;23;;
14320;SDS011;7244;47.364;8.464;2022-08-19T09:39:03;37;;;27;;
14320;SDS011;7244;47.364;8.464;2022-08-19T09:54:03;40;;;28;;
14320;SDS011;7244;47.364;8.464;2022-08-19T10:10:03;42;;;29;;
14320;SDS011;7244;47.364;8.464;2022-08-19T10:26:02;52;;;32;;
14320;SDS011;7244;47.364;8.464;2022-08-19T10:42:04;50;;;32;;
14320;SDS011;7244;47.364;8.464;2022-08-19T10:57:02;45;;;30;;
14320;SDS011;7244;47.364;8.464;2022-08-19T11:13:02;46;;;30;;
14320;SDS011;7244;47.364;8.464;2022-08-19T11:29:03;54;;;32;;
14320;SDS011;7244;47.364;8.464;2022-08-19T11:45:02;50;;;33;;
14320;SDS011;7244;47.364;8.464;2022-08-19T12:00:03;55;;;35;;
14320;SDS011;7244;47.364;8.464;2022-08-19T12:16:06;50;;;32;;
14320;SDS011;7244;47.364;8.464;2022-08-19T12:32:02;40;;;28;;
14320;SDS011;7244;47.364;8.464;2022-08-19T12:47:02;46;;;30;;
14320;SDS011;7244;47.364;8.464;2022-08-19T13:03:02;42;;;29;;
14320;SDS011;7244;47.364;8.464;2022-08-19T13:19:02;43;;;28;;
14320;SDS011;7244;47.364;8.464;2022-08-19T13:35:03;47;;;30;;
14320;SDS011;7244;47.364;8.464;2022-08-19T13:50:03;44;;;30;;
14320;SDS011;7244;47.364;8.464;2022-08-19T14:06:03;40;;;28;;
14320;SDS011;7244;47.364;8.464;2022-08-19T14:22:02;39;;;26;;
14320;SDS011;7244;47.364;8.464;2022-08-19T14:38:03;40;;;27;;
14320;SDS011;7244;47.364;8.464;2022-08-19T14:53:04;42;;;30;;
14320;SDS011;7244;47.364;8.464;2022-08-19T15:09:03;45;;;30;;
14320;SDS011;7244;47.364;8.464;2022-08-19T15:25:02;39;;;27;;
14320;SDS011;7244;47.364;8.464;2022-08-19T15:40:03;44;;;28;;
14320;SDS011;7244;47.364;8.464;2022-08-19T15:56:02;38;;;25;;
14320;SDS011;7244;47.364;8.464;2022-08-19T16:12:03;36;;;24;;
14320;SDS011;7244;47.364;8.464;2022-08-19T16:28:02;31;;;22;;
14320;SDS011;7244;47.364;8.464;2022-08-19T16:43:03;27;;;20;;
14320;SDS011;7244;47.364;8.464;2022-08-19T16:59:02;27;;;19;;
14320;SDS011;7244;47.364;8.464;2022-08-19T17:15:03;24;;;17;;
14320;SDS011;7244;47.364;8.464;2022-08-19T17:31:03;26;;;17;;
14320;SDS011;7244;47.364;8.464;2022-08-19T17:46:03;20;;;16;;
14320;SDS011;7244;47.364;8.464;2022-08-19T18:02:03;26;;;18;;
14320;SDS011;7244;47.364;8.464;2022-08-19T18:18:03;22;;;16;;
14320;SDS011;7244;47.364;8.464;2022-08-19T18:33:03;23;;;16;;
14320;SDS011;7244;47.364;8.464;2022-08-19T18:49:02;21;;;16;;
14320;SDS011;7244;47.364;8.464;2022-08-19T19:05:02;21;;;16;;
14320;SDS011;7244;47.364;8.464;2022-08-19T19:21:03;21;;;16;;
14320;SDS011;7244;47.364;8.464;2022-08-19T19:36:02;23;;;16;;
14320;SDS011;7244;47.364;8.464;2022-08-19T19:52:02;17;;;13;;
14320;SDS011;7244;47.364;8.464;2022-08-19T20:08:02;21;;;14;;
14320;SDS011;7244;47.364;8.464;2022-08-19T20:24:02;18;;;15;;
14320;SDS011;7244;47.364;8.464;2022-08-19T20:39:03;20;;;15;;
14320;SDS011;7244;47.364;8.464;2022-08-19T20:55:02;18;;;14;;
14320;SDS011;7244;47.364;8.464;2022-08-19T21:11:02;19;;;14;;
14320;SDS011;7244;47.364;8.464;2022-08-19T21:26:03;15;;;11;;
14320;SDS011;7244;47.364;8.464;2022-08-19T21:42:03;17;;;12;;
14320;SDS011;7244;47.364;8.464;2022-08-19T21:58:03;17;;;13;;
14320;SDS011;7244;47.364;8.464;2022-08-19T22:14:02;16;;;12;;
14320;SDS011;7244;47.364;8.464;2022-08-19T22:29:02;15;;;11;;
14320;SDS011;7244;47.364;8.464;2022-08-19T22:45:02;14;;;11;;
14320;SDS011;7244;47.364;8.464;2022-08-19T23:01:02;14;;;11;;
14320;SDS011;7244;47.364;8.464;2022-08-19T23:16:03;15;;;12;;
14320;SDS011;7244;47.364;8.464;2022-08-19T23:32:02;18;;;13;;
14320;SDS011;7244;47.364;8.464;2022-08-19T23:48:02;18;;;13;;
